Etusivu
METAR-TAF:

METAR-TAF

Lentoasemat :

Murmanskin lentoasema

Murmansk, Venäjä

Leveyspiiri: 68-58N, Pituuspiiri: 033-03E, korkeus merenpinnasta: 51 m

Tämänhetkinen sää

Tämä raportti tehtiin 24 minuuttia sitten, kello 19.00 UTC
Tuuli 6 kn pohjoisesta
Lämpötila 17°C
Kosteus 34%
Ilmanpaine 1017 hPa
Näkyvyys 10 km tai enemmän
ei pilviä alle 1500 m:ssä eikä cumulonimbus-pilviä

METAR: ULMM 261900Z 36003MPS CAVOK 17/01 Q1017 R31/120070 NOSIG RMK QFE755

Aika: 22:24 (19:24 UTC)

Sääennuste

Tämä raportti tehtiin 2 tuntia ja 33 minuuttia sitten, kello 16.51 UTC
Ennuste voimassa 26. päivästä klo 18 UTC - 27. päivään klo 18 UTC
Tuuli 6 kn lännestä
Näkyvyys 10 km tai enemmän
Hajanaisia pilviä 3000 ft:n korkeudessa
Tulossa
27. päivästä klo 06 UTC - 27. päivään klo 08 UTC
Tuuli 10 kn pohjoisesta/koillisesta puuskistuen 19 kn:hen

TAF: ULMM 261651Z 2618/2718 27003MPS 9999 SCT030 BECMG 2706/2708 03005G10MPS

Säähavainnot ja -ennusteet yli 4000 lentoasemalta (METAR- ja TAF-raportit).

Käytössä olevat sääasemat on merkitty karttaan keltaisilla ja punaisilla pisteillä.

Aseta hiiri pisteen päälle nähdäksesi sääaseman nimen.

Klikkaa sitten nähdäksesi säähavainnot ja -ennusteet.

Kartan vaihtaminen: klikkaa mustalla rastilla varustettuja vihreitä pisteitä, niin voit zoomata sisään; viivalla varustettua vihreää pistettä, niin voit zoomata ulos tai vihreitä nuolia, niin pääset viereisille kartoille.


METAR-TAF: